sensor_id;sensor_type;location;lat;lon;timestamp;P1;durP1;ratioP1;P2;durP2;ratioP2
21192;SDS011;10754;51.106;7.164;2023-08-31T00:01:08;4.22;;;1.60;;
21192;SDS011;10754;51.106;7.164;2023-08-31T00:03:34;4.78;;;1.65;;
21192;SDS011;10754;51.106;7.164;2023-08-31T00:06:03;4.93;;;1.40;;
21192;SDS011;10754;51.106;7.164;2023-08-31T00:08:29;2.53;;;1.30;;
21192;SDS011;10754;51.106;7.164;2023-08-31T00:10:55;2.50;;;1.20;;
21192;SDS011;10754;51.106;7.164;2023-08-31T00:13:22;3.97;;;1.50;;
21192;SDS011;10754;51.106;7.164;2023-08-31T00:15:47;3.00;;;1.48;;
21192;SDS011;10754;51.106;7.164;2023-08-31T00:18:13;2.67;;;1.45;;
21192;SDS011;10754;51.106;7.164;2023-08-31T00:20:41;2.22;;;1.40;;
21192;SDS011;10754;51.106;7.164;2023-08-31T00:23:07;3.63;;;1.50;;
21192;SDS011;10754;51.106;7.164;2023-08-31T00:25:32;1.85;;;1.27;;
21192;SDS011;10754;51.106;7.164;2023-08-31T00:27:58;3.92;;;1.50;;
21192;SDS011;10754;51.106;7.164;2023-08-31T00:30:29;1.92;;;1.30;;
21192;SDS011;10754;51.106;7.164;2023-08-31T00:32:55;3.65;;;1.40;;
21192;SDS011;10754;51.106;7.164;2023-08-31T00:35:25;3.72;;;1.45;;
21192;SDS011;10754;51.106;7.164;2023-08-31T00:37:52;1.90;;;1.20;;
21192;SDS011;10754;51.106;7.164;2023-08-31T00:40:21;4.68;;;1.30;;
21192;SDS011;10754;51.106;7.164;2023-08-31T00:42:47;4.80;;;1.20;;
21192;SDS011;10754;51.106;7.164;2023-08-31T00:45:13;3.00;;;1.55;;
21192;SDS011;10754;51.106;7.164;2023-08-31T00:47:38;2.13;;;1.30;;
21192;SDS011;10754;51.106;7.164;2023-08-31T00:50:04;4.53;;;1.20;;
21192;SDS011;10754;51.106;7.164;2023-08-31T00:52:32;3.05;;;1.30;;
21192;SDS011;10754;51.106;7.164;2023-08-31T00:54:57;3.72;;;1.63;;
21192;SDS011;10754;51.106;7.164;2023-08-31T00:57:23;3.20;;;1.40;;
21192;SDS011;10754;51.106;7.164;2023-08-31T00:59:51;5.13;;;1.50;;
21192;SDS011;10754;51.106;7.164;2023-08-31T01:02:17;4.57;;;1.52;;
21192;SDS011;10754;51.106;7.164;2023-08-31T01:04:58;3.60;;;1.63;;
21192;SDS011;10754;51.106;7.164;2023-08-31T01:07:49;2.47;;;1.50;;
21192;SDS011;10754;51.106;7.164;2023-08-31T01:10:24;5.97;;;1.67;;
21192;SDS011;10754;51.106;7.164;2023-08-31T01:13:00;4.72;;;1.25;;
21192;SDS011;10754;51.106;7.164;2023-08-31T01:15:28;2.30;;;1.63;;
21192;SDS011;10754;51.106;7.164;2023-08-31T01:17:56;3.05;;;1.50;;
21192;SDS011;10754;51.106;7.164;2023-08-31T01:20:31;4.35;;;1.52;;
21192;SDS011;10754;51.106;7.164;2023-08-31T01:23:06;3.85;;;1.70;;
21192;SDS011;10754;51.106;7.164;2023-08-31T01:25:38;2.40;;;1.40;;
21192;SDS011;10754;51.106;7.164;2023-08-31T01:28:06;3.20;;;1.52;;
21192;SDS011;10754;51.106;7.164;2023-08-31T01:30:32;4.82;;;2.15;;
21192;SDS011;10754;51.106;7.164;2023-08-31T01:32:58;3.83;;;1.70;;
21192;SDS011;10754;51.106;7.164;2023-08-31T01:35:24;2.67;;;1.88;;
21192;SDS011;10754;51.106;7.164;2023-08-31T01:37:54;2.95;;;1.60;;
21192;SDS011;10754;51.106;7.164;2023-08-31T01:42:58;3.70;;;1.60;;
21192;SDS011;10754;51.106;7.164;2023-08-31T01:45:26;3.40;;;1.70;;
21192;SDS011;10754;51.106;7.164;2023-08-31T01:47:52;3.75;;;1.60;;
21192;SDS011;10754;51.106;7.164;2023-08-31T01:50:17;5.03;;;1.60;;
21192;SDS011;10754;51.106;7.164;2023-08-31T01:52:43;5.22;;;1.73;;
21192;SDS011;10754;51.106;7.164;2023-08-31T01:55:08;3.35;;;1.55;;
21192;SDS011;10754;51.106;7.164;2023-08-31T01:57:34;3.58;;;1.40;;
21192;SDS011;10754;51.106;7.164;2023-08-31T02:00:00;2.25;;;1.15;;
21192;SDS011;10754;51.106;7.164;2023-08-31T02:02:25;3.60;;;1.60;;
21192;SDS011;10754;51.106;7.164;2023-08-31T02:04:51;2.42;;;1.48;;
21192;SDS011;10754;51.106;7.164;2023-08-31T02:07:17;4.15;;;1.73;;
21192;SDS011;10754;51.106;7.164;2023-08-31T02:09:42;3.35;;;1.65;;
21192;SDS011;10754;51.106;7.164;2023-08-31T02:12:08;4.65;;;1.88;;
21192;SDS011;10754;51.106;7.164;2023-08-31T02:14:34;1.77;;;1.25;;
21192;SDS011;10754;51.106;7.164;2023-08-31T02:17:01;5.95;;;2.03;;
21192;SDS011;10754;51.106;7.164;2023-08-31T02:19:26;2.40;;;1.60;;
21192;SDS011;10754;51.106;7.164;2023-08-31T02:21:52;4.22;;;1.95;;
21192;SDS011;10754;51.106;7.164;2023-08-31T02:24:17;3.40;;;1.92;;
21192;SDS011;10754;51.106;7.164;2023-08-31T02:26:43;3.70;;;1.58;;
21192;SDS011;10754;51.106;7.164;2023-08-31T02:29:08;3.20;;;1.50;;
21192;SDS011;10754;51.106;7.164;2023-08-31T02:31:34;2.35;;;1.70;;
21192;SDS011;10754;51.106;7.164;2023-08-31T02:33:59;3.22;;;1.67;;
21192;SDS011;10754;51.106;7.164;2023-08-31T02:36:25;4.13;;;1.70;;
21192;SDS011;10754;51.106;7.164;2023-08-31T02:38:50;3.35;;;1.92;;
21192;SDS011;10754;51.106;7.164;2023-08-31T02:41:17;2.35;;;1.55;;
21192;SDS011;10754;51.106;7.164;2023-08-31T02:43:43;1.85;;;1.58;;
21192;SDS011;10754;51.106;7.164;2023-08-31T02:46:08;3.55;;;2.00;;
21192;SDS011;10754;51.106;7.164;2023-08-31T02:48:34;2.47;;;1.40;;
21192;SDS011;10754;51.106;7.164;2023-08-31T02:51:00;2.90;;;1.65;;
21192;SDS011;10754;51.106;7.164;2023-08-31T02:53:26;2.17;;;1.67;;
21192;SDS011;10754;51.106;7.164;2023-08-31T02:55:52;2.28;;;1.70;;
21192;SDS011;10754;51.106;7.164;2023-08-31T02:58:18;3.78;;;1.70;;
21192;SDS011;10754;51.106;7.164;2023-08-31T03:00:44;4.95;;;1.85;;
21192;SDS011;10754;51.106;7.164;2023-08-31T03:03:12;2.35;;;1.50;;
21192;SDS011;10754;51.106;7.164;2023-08-31T03:05:38;4.40;;;1.80;;
21192;SDS011;10754;51.106;7.164;2023-08-31T03:08:04;2.72;;;1.75;;
21192;SDS011;10754;51.106;7.164;2023-08-31T03:10:30;2.65;;;1.70;;
21192;SDS011;10754;51.106;7.164;2023-08-31T03:12:55;3.25;;;1.63;;
21192;SDS011;10754;51.106;7.164;2023-08-31T03:15:21;2.13;;;1.70;;
21192;SDS011;10754;51.106;7.164;2023-08-31T03:17:46;3.42;;;1.70;;
21192;SDS011;10754;51.106;7.164;2023-08-31T03:20:12;2.60;;;1.80;;
21192;SDS011;10754;51.106;7.164;2023-08-31T03:22:37;2.92;;;2.30;;
21192;SDS011;10754;51.106;7.164;2023-08-31T03:25:03;3.83;;;1.70;;
21192;SDS011;10754;51.106;7.164;2023-08-31T03:27:28;2.60;;;1.70;;
21192;SDS011;10754;51.106;7.164;2023-08-31T03:29:54;3.25;;;1.52;;
21192;SDS011;10754;51.106;7.164;2023-08-31T03:32:20;3.90;;;1.52;;
21192;SDS011;10754;51.106;7.164;2023-08-31T03:34:45;3.42;;;1.80;;
21192;SDS011;10754;51.106;7.164;2023-08-31T03:37:11;3.53;;;1.73;;
21192;SDS011;10754;51.106;7.164;2023-08-31T03:39:36;4.68;;;1.80;;
21192;SDS011;10754;51.106;7.164;2023-08-31T03:42:02;3.15;;;2.03;;
21192;SDS011;10754;51.106;7.164;2023-08-31T03:44:27;2.05;;;1.55;;
21192;SDS011;10754;51.106;7.164;2023-08-31T03:46:53;3.33;;;1.80;;
21192;SDS011;10754;51.106;7.164;2023-08-31T03:49:19;2.88;;;1.60;;
21192;SDS011;10754;51.106;7.164;2023-08-31T03:51:44;3.13;;;1.50;;
21192;SDS011;10754;51.106;7.164;2023-08-31T03:54:10;3.38;;;2.05;;
21192;SDS011;10754;51.106;7.164;2023-08-31T03:56:37;2.25;;;1.50;;
21192;SDS011;10754;51.106;7.164;2023-08-31T03:59:03;3.35;;;1.63;;
21192;SDS011;10754;51.106;7.164;2023-08-31T04:01:30;1.75;;;1.40;;
21192;SDS011;10754;51.106;7.164;2023-08-31T04:03:55;4.28;;;2.10;;
21192;SDS011;10754;51.106;7.164;2023-08-31T04:06:21;5.15;;;2.13;;
21192;SDS011;10754;51.106;7.164;2023-08-31T04:08:47;2.03;;;1.83;;
21192;SDS011;10754;51.106;7.164;2023-08-31T04:11:12;3.97;;;1.85;;
21192;SDS011;10754;51.106;7.164;2023-08-31T04:13:38;3.83;;;1.90;;
21192;SDS011;10754;51.106;7.164;2023-08-31T04:16:03;2.63;;;1.52;;
21192;SDS011;10754;51.106;7.164;2023-08-31T04:18:29;2.30;;;1.60;;
21192;SDS011;10754;51.106;7.164;2023-08-31T04:20:54;3.65;;;1.90;;
21192;SDS011;10754;51.106;7.164;2023-08-31T04:23:20;2.65;;;1.70;;
21192;SDS011;10754;51.106;7.164;2023-08-31T04:25:46;2.78;;;2.00;;
21192;SDS011;10754;51.106;7.164;2023-08-31T04:28:12;2.85;;;1.70;;
21192;SDS011;10754;51.106;7.164;2023-08-31T04:30:39;2.35;;;1.92;;
21192;SDS011;10754;51.106;7.164;2023-08-31T04:33:05;3.47;;;1.88;;
21192;SDS011;10754;51.106;7.164;2023-08-31T04:35:31;2.47;;;2.15;;
21192;SDS011;10754;51.106;7.164;2023-08-31T04:37:57;4.47;;;1.90;;
21192;SDS011;10754;51.106;7.164;2023-08-31T04:40:23;3.63;;;1.95;;
21192;SDS011;10754;51.106;7.164;2023-08-31T04:42:49;4.85;;;1.70;;
21192;SDS011;10754;51.106;7.164;2023-08-31T04:45:15;2.00;;;1.80;;
21192;SDS011;10754;51.106;7.164;2023-08-31T04:47:41;1.85;;;1.70;;
21192;SDS011;10754;51.106;7.164;2023-08-31T04:50:07;2.58;;;2.00;;
21192;SDS011;10754;51.106;7.164;2023-08-31T04:52:33;2.58;;;1.88;;
21192;SDS011;10754;51.106;7.164;2023-08-31T04:55:00;2.95;;;2.08;;
21192;SDS011;10754;51.106;7.164;2023-08-31T04:57:32;1.92;;;1.67;;
21192;SDS011;10754;51.106;7.164;2023-08-31T04:59:58;4.78;;;2.28;;
21192;SDS011;10754;51.106;7.164;2023-08-31T05:02:23;3.35;;;2.28;;
21192;SDS011;10754;51.106;7.164;2023-08-31T05:04:49;3.15;;;1.88;;
21192;SDS011;10754;51.106;7.164;2023-08-31T05:07:16;4.05;;;1.90;;
21192;SDS011;10754;51.106;7.164;2023-08-31T05:09:41;3.38;;;2.42;;
21192;SDS011;10754;51.106;7.164;2023-08-31T05:12:07;4.40;;;2.30;;
21192;SDS011;10754;51.106;7.164;2023-08-31T05:14:33;4.15;;;1.85;;
21192;SDS011;10754;51.106;7.164;2023-08-31T05:17:02;5.68;;;2.53;;
21192;SDS011;10754;51.106;7.164;2023-08-31T05:19:28;2.80;;;2.20;;
21192;SDS011;10754;51.106;7.164;2023-08-31T05:21:54;3.35;;;2.00;;
21192;SDS011;10754;51.106;7.164;2023-08-31T05:24:19;2.55;;;2.00;;
21192;SDS011;10754;51.106;7.164;2023-08-31T05:26:45;3.25;;;2.00;;
21192;SDS011;10754;51.106;7.164;2023-08-31T05:29:10;2.50;;;1.83;;
21192;SDS011;10754;51.106;7.164;2023-08-31T05:31:36;2.90;;;2.35;;
21192;SDS011;10754;51.106;7.164;2023-08-31T05:34:02;2.65;;;2.17;;
21192;SDS011;10754;51.106;7.164;2023-08-31T05:36:27;3.10;;;1.90;;
21192;SDS011;10754;51.106;7.164;2023-08-31T05:38:53;4.25;;;2.17;;
21192;SDS011;10754;51.106;7.164;2023-08-31T05:41:19;4.35;;;2.03;;
21192;SDS011;10754;51.106;7.164;2023-08-31T05:43:44;5.55;;;2.90;;
21192;SDS011;10754;51.106;7.164;2023-08-31T05:46:10;4.38;;;2.33;;
21192;SDS011;10754;51.106;7.164;2023-08-31T05:48:36;2.97;;;2.10;;
21192;SDS011;10754;51.106;7.164;2023-08-31T05:51:02;3.08;;;2.40;;
21192;SDS011;10754;51.106;7.164;2023-08-31T05:53:29;4.00;;;2.30;;
21192;SDS011;10754;51.106;7.164;2023-08-31T05:55:54;2.42;;;2.17;;
21192;SDS011;10754;51.106;7.164;2023-08-31T05:58:28;2.40;;;2.20;;
21192;SDS011;10754;51.106;7.164;2023-08-31T06:00:54;3.45;;;2.40;;
21192;SDS011;10754;51.106;7.164;2023-08-31T06:03:20;2.30;;;2.00;;
21192;SDS011;10754;51.106;7.164;2023-08-31T06:05:45;2.80;;;2.10;;
21192;SDS011;10754;51.106;7.164;2023-08-31T06:08:11;4.45;;;2.35;;
21192;SDS011;10754;51.106;7.164;2023-08-31T06:10:36;3.33;;;2.15;;
21192;SDS011;10754;51.106;7.164;2023-08-31T06:13:02;3.63;;;2.08;;
21192;SDS011;10754;51.106;7.164;2023-08-31T06:15:27;3.88;;;2.40;;
21192;SDS011;10754;51.106;7.164;2023-08-31T06:17:53;2.90;;;2.30;;
21192;SDS011;10754;51.106;7.164;2023-08-31T06:20:18;4.18;;;2.40;;
21192;SDS011;10754;51.106;7.164;2023-08-31T06:22:44;2.67;;;2.08;;
21192;SDS011;10754;51.106;7.164;2023-08-31T06:25:09;3.30;;;2.35;;
21192;SDS011;10754;51.106;7.164;2023-08-31T06:27:36;2.50;;;2.25;;
21192;SDS011;10754;51.106;7.164;2023-08-31T06:30:02;3.47;;;2.33;;
21192;SDS011;10754;51.106;7.164;2023-08-31T06:32:28;4.30;;;2.33;;
21192;SDS011;10754;51.106;7.164;2023-08-31T06:34:53;4.65;;;2.38;;
21192;SDS011;10754;51.106;7.164;2023-08-31T06:37:19;3.78;;;2.40;;
21192;SDS011;10754;51.106;7.164;2023-08-31T06:39:45;6.03;;;2.53;;
21192;SDS011;10754;51.106;7.164;2023-08-31T06:42:10;4.13;;;2.55;;
21192;SDS011;10754;51.106;7.164;2023-08-31T06:44:36;5.20;;;2.40;;
21192;SDS011;10754;51.106;7.164;2023-08-31T06:47:01;4.30;;;2.50;;
21192;SDS011;10754;51.106;7.164;2023-08-31T06:49:28;3.55;;;2.50;;
21192;SDS011;10754;51.106;7.164;2023-08-31T06:51:55;2.50;;;2.20;;
21192;SDS011;10754;51.106;7.164;2023-08-31T06:54:20;3.28;;;2.20;;
21192;SDS011;10754;51.106;7.164;2023-08-31T06:56:46;3.28;;;2.50;;
21192;SDS011;10754;51.106;7.164;2023-08-31T06:59:11;3.85;;;2.70;;
21192;SDS011;10754;51.106;7.164;2023-08-31T07:01:37;4.28;;;2.40;;
21192;SDS011;10754;51.106;7.164;2023-08-31T07:04:02;4.53;;;2.30;;
21192;SDS011;10754;51.106;7.164;2023-08-31T07:06:29;3.42;;;2.40;;
21192;SDS011;10754;51.106;7.164;2023-08-31T07:08:54;2.25;;;1.80;;
21192;SDS011;10754;51.106;7.164;2023-08-31T07:11:20;5.53;;;2.53;;
21192;SDS011;10754;51.106;7.164;2023-08-31T07:13:46;5.30;;;2.45;;
21192;SDS011;10754;51.106;7.164;2023-08-31T07:16:11;4.25;;;2.33;;
21192;SDS011;10754;51.106;7.164;2023-08-31T07:18:37;4.47;;;2.45;;
21192;SDS011;10754;51.106;7.164;2023-08-31T07:21:02;2.75;;;2.30;;
21192;SDS011;10754;51.106;7.164;2023-08-31T07:23:29;4.03;;;2.22;;
21192;SDS011;10754;51.106;7.164;2023-08-31T07:25:58;3.53;;;1.98;;
21192;SDS011;10754;51.106;7.164;2023-08-31T07:28:25;4.10;;;1.98;;
21192;SDS011;10754;51.106;7.164;2023-08-31T07:31:00;3.90;;;2.40;;
21192;SDS011;10754;51.106;7.164;2023-08-31T07:33:26;2.80;;;1.88;;
21192;SDS011;10754;51.106;7.164;2023-08-31T07:35:52;3.42;;;2.25;;
21192;SDS011;10754;51.106;7.164;2023-08-31T07:38:17;2.95;;;1.95;;
21192;SDS011;10754;51.106;7.164;2023-08-31T07:40:43;3.15;;;1.85;;
21192;SDS011;10754;51.106;7.164;2023-08-31T07:43:08;4.30;;;2.20;;
21192;SDS011;10754;51.106;7.164;2023-08-31T07:45:34;3.60;;;2.15;;
21192;SDS011;10754;51.106;7.164;2023-08-31T07:47:59;3.28;;;2.30;;
21192;SDS011;10754;51.106;7.164;2023-08-31T07:50:24;4.47;;;2.15;;
21192;SDS011;10754;51.106;7.164;2023-08-31T07:52:50;2.88;;;2.10;;
21192;SDS011;10754;51.106;7.164;2023-08-31T07:55:16;3.00;;;1.70;;
21192;SDS011;10754;51.106;7.164;2023-08-31T07:57:42;3.50;;;1.65;;
21192;SDS011;10754;51.106;7.164;2023-08-31T08:00:08;3.60;;;1.60;;
21192;SDS011;10754;51.106;7.164;2023-08-31T08:02:34;4.85;;;1.85;;
21192;SDS011;10754;51.106;7.164;2023-08-31T08:04:59;4.35;;;1.90;;
21192;SDS011;10754;51.106;7.164;2023-08-31T08:07:25;2.88;;;1.90;;
21192;SDS011;10754;51.106;7.164;2023-08-31T08:09:50;3.55;;;1.75;;
21192;SDS011;10754;51.106;7.164;2023-08-31T08:12:16;3.15;;;1.60;;
21192;SDS011;10754;51.106;7.164;2023-08-31T08:14:41;2.38;;;1.50;;
21192;SDS011;10754;51.106;7.164;2023-08-31T08:17:06;2.65;;;1.55;;
21192;SDS011;10754;51.106;7.164;2023-08-31T08:19:32;3.72;;;1.80;;
21192;SDS011;10754;51.106;7.164;2023-08-31T08:21:57;2.60;;;1.50;;
21192;SDS011;10754;51.106;7.164;2023-08-31T08:24:23;4.43;;;1.70;;
21192;SDS011;10754;51.106;7.164;2023-08-31T08:26:48;2.10;;;1.60;;
21192;SDS011;10754;51.106;7.164;2023-08-31T08:29:14;3.58;;;2.08;;
21192;SDS011;10754;51.106;7.164;2023-08-31T08:31:40;2.53;;;1.45;;
21192;SDS011;10754;51.106;7.164;2023-08-31T08:34:05;2.55;;;1.73;;
21192;SDS011;10754;51.106;7.164;2023-08-31T08:36:31;3.88;;;1.90;;
21192;SDS011;10754;51.106;7.164;2023-08-31T08:38:56;4.28;;;1.60;;
21192;SDS011;10754;51.106;7.164;2023-08-31T08:41:25;2.90;;;1.42;;
21192;SDS011;10754;51.106;7.164;2023-08-31T08:43:54;2.97;;;1.50;;
21192;SDS011;10754;51.106;7.164;2023-08-31T08:46:24;3.47;;;1.60;;
21192;SDS011;10754;51.106;7.164;2023-08-31T08:48:57;4.53;;;1.67;;
21192;SDS011;10754;51.106;7.164;2023-08-31T08:51:26;3.58;;;1.80;;
21192;SDS011;10754;51.106;7.164;2023-08-31T08:53:52;3.38;;;1.50;;
21192;SDS011;10754;51.106;7.164;2023-08-31T08:56:19;3.35;;;1.65;;
21192;SDS011;10754;51.106;7.164;2023-08-31T08:58:44;2.38;;;1.73;;
21192;SDS011;10754;51.106;7.164;2023-08-31T09:01:10;2.35;;;1.40;;
21192;SDS011;10754;51.106;7.164;2023-08-31T09:03:36;2.63;;;1.42;;
21192;SDS011;10754;51.106;7.164;2023-08-31T09:06:01;2.25;;;1.30;;
21192;SDS011;10754;51.106;7.164;2023-08-31T09:08:29;1.80;;;1.42;;
21192;SDS011;10754;51.106;7.164;2023-08-31T09:10:55;3.55;;;1.70;;
21192;SDS011;10754;51.106;7.164;2023-08-31T09:13:27;2.28;;;1.20;;
21192;SDS011;10754;51.106;7.164;2023-08-31T09:15:54;3.72;;;1.40;;
21192;SDS011;10754;51.106;7.164;2023-08-31T09:18:28;2.55;;;1.35;;
21192;SDS011;10754;51.106;7.164;2023-08-31T09:20:56;3.92;;;1.45;;
21192;SDS011;10754;51.106;7.164;2023-08-31T09:23:22;2.08;;;1.40;;
21192;SDS011;10754;51.106;7.164;2023-08-31T09:25:49;2.30;;;1.10;;
21192;SDS011;10754;51.106;7.164;2023-08-31T09:28:21;2.72;;;1.40;;
21192;SDS011;10754;51.106;7.164;2023-08-31T09:30:49;3.85;;;1.50;;
21192;SDS011;10754;51.106;7.164;2023-08-31T09:33:16;2.75;;;1.02;;
21192;SDS011;10754;51.106;7.164;2023-08-31T09:38:19;1.95;;;1.20;;
21192;SDS011;10754;51.106;7.164;2023-08-31T09:40:45;2.58;;;1.00;;
21192;SDS011;10754;51.106;7.164;2023-08-31T09:43:11;1.20;;;1.10;;
21192;SDS011;10754;51.106;7.164;2023-08-31T09:45:36;1.88;;;1.30;;
21192;SDS011;10754;51.106;7.164;2023-08-31T09:48:03;1.58;;;0.82;;
21192;SDS011;10754;51.106;7.164;2023-08-31T09:50:29;2.67;;;1.48;;
21192;SDS011;10754;51.106;7.164;2023-08-31T09:52:57;1.95;;;1.30;;
21192;SDS011;10754;51.106;7.164;2023-08-31T09:55:26;3.10;;;1.17;;
21192;SDS011;10754;51.106;7.164;2023-08-31T09:57:54;1.88;;;1.30;;
21192;SDS011;10754;51.106;7.164;2023-08-31T10:00:23;2.63;;;1.02;;
21192;SDS011;10754;51.106;7.164;2023-08-31T10:02:50;3.72;;;1.38;;
21192;SDS011;10754;51.106;7.164;2023-08-31T10:05:18;1.33;;;0.70;;
21192;SDS011;10754;51.106;7.164;2023-08-31T10:07:45;2.47;;;1.02;;
21192;SDS011;10754;51.106;7.164;2023-08-31T10:10:10;2.35;;;1.23;;
21192;SDS011;10754;51.106;7.164;2023-08-31T10:12:37;2.70;;;1.00;;
21192;SDS011;10754;51.106;7.164;2023-08-31T10:15:05;3.10;;;1.10;;
21192;SDS011;10754;51.106;7.164;2023-08-31T10:17:31;1.33;;;0.82;;
21192;SDS011;10754;51.106;7.164;2023-08-31T10:19:56;2.75;;;1.30;;
21192;SDS011;10754;51.106;7.164;2023-08-31T10:22:22;2.60;;;1.10;;
21192;SDS011;10754;51.106;7.164;2023-08-31T10:25:06;2.10;;;1.15;;
21192;SDS011;10754;51.106;7.164;2023-08-31T10:27:36;3.92;;;1.42;;
21192;SDS011;10754;51.106;7.164;2023-08-31T10:33:01;4.00;;;1.10;;
21192;SDS011;10754;51.106;7.164;2023-08-31T10:36:08;3.05;;;1.30;;
21192;SDS011;10754;51.106;7.164;2023-08-31T10:38:25;2.42;;;1.20;;
21192;SDS011;10754;51.106;7.164;2023-08-31T10:41:02;2.38;;;1.00;;
21192;SDS011;10754;51.106;7.164;2023-08-31T10:43:43;2.13;;;1.25;;
21192;SDS011;10754;51.106;7.164;2023-08-31T10:48:58;2.30;;;1.58;;
21192;SDS011;10754;51.106;7.164;2023-08-31T10:51:45;2.28;;;1.27;;
21192;SDS011;10754;51.106;7.164;2023-08-31T10:54:32;2.60;;;1.38;;
21192;SDS011;10754;51.106;7.164;2023-08-31T11:02:28;2.65;;;1.10;;
21192;SDS011;10754;51.106;7.164;2023-08-31T11:05:14;2.38;;;1.30;;
21192;SDS011;10754;51.106;7.164;2023-08-31T11:07:41;3.60;;;1.08;;
21192;SDS011;10754;51.106;7.164;2023-08-31T11:10:09;2.40;;;1.20;;
21192;SDS011;10754;51.106;7.164;2023-08-31T11:12:36;4.18;;;1.23;;
21192;SDS011;10754;51.106;7.164;2023-08-31T11:15:03;3.60;;;1.67;;
21192;SDS011;10754;51.106;7.164;2023-08-31T11:17:29;3.97;;;1.05;;
21192;SDS011;10754;51.106;7.164;2023-08-31T11:19:57;2.65;;;1.17;;
21192;SDS011;10754;51.106;7.164;2023-08-31T11:22:22;2.53;;;1.33;;
21192;SDS011;10754;51.106;7.164;2023-08-31T11:24:48;2.25;;;1.50;;
21192;SDS011;10754;51.106;7.164;2023-08-31T11:27:14;2.45;;;1.40;;
21192;SDS011;10754;51.106;7.164;2023-08-31T11:29:43;2.80;;;1.17;;
21192;SDS011;10754;51.106;7.164;2023-08-31T11:32:10;2.28;;;1.23;;
21192;SDS011;10754;51.106;7.164;2023-08-31T11:34:39;4.22;;;1.40;;
21192;SDS011;10754;51.106;7.164;2023-08-31T11:37:06;2.75;;;1.10;;
21192;SDS011;10754;51.106;7.164;2023-08-31T11:39:32;3.10;;;1.30;;
21192;SDS011;10754;51.106;7.164;2023-08-31T11:41:58;2.33;;;1.05;;
21192;SDS011;10754;51.106;7.164;2023-08-31T11:44:23;3.35;;;0.90;;
21192;SDS011;10754;51.106;7.164;2023-08-31T11:46:50;1.65;;;0.88;;
21192;SDS011;10754;51.106;7.164;2023-08-31T11:49:17;1.88;;;1.10;;
21192;SDS011;10754;51.106;7.164;2023-08-31T11:51:43;3.60;;;1.30;;
21192;SDS011;10754;51.106;7.164;2023-08-31T11:54:10;1.65;;;0.88;;
21192;SDS011;10754;51.106;7.164;2023-08-31T11:56:39;3.00;;;1.20;;
21192;SDS011;10754;51.106;7.164;2023-08-31T11:59:12;2.65;;;1.15;;
21192;SDS011;10754;51.106;7.164;2023-08-31T12:01:47;1.88;;;0.80;;
21192;SDS011;10754;51.106;7.164;2023-08-31T12:04:15;3.03;;;1.00;;
21192;SDS011;10754;51.106;7.164;2023-08-31T12:06:47;3.03;;;1.15;;
21192;SDS011;10754;51.106;7.164;2023-08-31T12:09:15;2.85;;;1.48;;
21192;SDS011;10754;51.106;7.164;2023-08-31T12:11:41;3.38;;;1.10;;
21192;SDS011;10754;51.106;7.164;2023-08-31T12:14:22;3.75;;;1.20;;
21192;SDS011;10754;51.106;7.164;2023-08-31T12:16:49;2.67;;;1.33;;
21192;SDS011;10754;51.106;7.164;2023-08-31T12:19:16;2.15;;;1.20;;
21192;SDS011;10754;51.106;7.164;2023-08-31T12:21:43;2.22;;;1.20;;
21192;SDS011;10754;51.106;7.164;2023-08-31T12:24:10;2.95;;;1.15;;
21192;SDS011;10754;51.106;7.164;2023-08-31T12:26:36;4.20;;;1.48;;
21192;SDS011;10754;51.106;7.164;2023-08-31T12:29:02;3.17;;;1.17;;
21192;SDS011;10754;51.106;7.164;2023-08-31T12:31:29;1.35;;;0.80;;
21192;SDS011;10754;51.106;7.164;2023-08-31T12:33:55;1.42;;;1.02;;
21192;SDS011;10754;51.106;7.164;2023-08-31T12:36:21;1.80;;;1.05;;
21192;SDS011;10754;51.106;7.164;2023-08-31T12:38:46;2.67;;;1.02;;
21192;SDS011;10754;51.106;7.164;2023-08-31T12:41:12;2.92;;;1.10;;
21192;SDS011;10754;51.106;7.164;2023-08-31T12:43:38;2.47;;;1.08;;
21192;SDS011;10754;51.106;7.164;2023-08-31T12:46:03;3.13;;;1.27;;
21192;SDS011;10754;51.106;7.164;2023-08-31T12:48:32;2.42;;;1.20;;
21192;SDS011;10754;51.106;7.164;2023-08-31T12:50:58;2.47;;;1.20;;
21192;SDS011;10754;51.106;7.164;2023-08-31T12:53:23;2.42;;;1.00;;
21192;SDS011;10754;51.106;7.164;2023-08-31T12:55:49;3.55;;;1.60;;
21192;SDS011;10754;51.106;7.164;2023-08-31T12:58:15;4.93;;;1.48;;
21192;SDS011;10754;51.106;7.164;2023-08-31T13:00:40;3.33;;;1.40;;
21192;SDS011;10754;51.106;7.164;2023-08-31T13:03:08;2.88;;;1.10;;
21192;SDS011;10754;51.106;7.164;2023-08-31T13:05:34;1.27;;;1.13;;
21192;SDS011;10754;51.106;7.164;2023-08-31T13:07:59;1.75;;;0.77;;
21192;SDS011;10754;51.106;7.164;2023-08-31T13:10:25;3.22;;;0.93;;
21192;SDS011;10754;51.106;7.164;2023-08-31T13:12:51;1.20;;;0.75;;
21192;SDS011;10754;51.106;7.164;2023-08-31T13:15:16;3.25;;;1.27;;
21192;SDS011;10754;51.106;7.164;2023-08-31T13:17:42;2.53;;;0.80;;
21192;SDS011;10754;51.106;7.164;2023-08-31T13:20:07;2.35;;;0.90;;
21192;SDS011;10754;51.106;7.164;2023-08-31T13:22:33;2.47;;;0.85;;
21192;SDS011;10754;51.106;7.164;2023-08-31T13:24:59;1.45;;;0.95;;
21192;SDS011;10754;51.106;7.164;2023-08-31T13:27:24;1.55;;;0.70;;
21192;SDS011;10754;51.106;7.164;2023-08-31T13:29:50;1.58;;;0.80;;
21192;SDS011;10754;51.106;7.164;2023-08-31T13:32:16;4.38;;;1.05;;
21192;SDS011;10754;51.106;7.164;2023-08-31T13:34:42;1.73;;;1.00;;
21192;SDS011;10754;51.106;7.164;2023-08-31T13:37:07;2.75;;;1.10;;
21192;SDS011;10754;51.106;7.164;2023-08-31T13:39:34;2.78;;;1.30;;
21192;SDS011;10754;51.106;7.164;2023-08-31T13:42:05;4.10;;;1.38;;
21192;SDS011;10754;51.106;7.164;2023-08-31T13:44:31;2.15;;;1.50;;
21192;SDS011;10754;51.106;7.164;2023-08-31T13:46:57;2.75;;;1.23;;
21192;SDS011;10754;51.106;7.164;2023-08-31T13:49:22;2.58;;;1.70;;
21192;SDS011;10754;51.106;7.164;2023-08-31T13:51:48;2.92;;;1.60;;
21192;SDS011;10754;51.106;7.164;2023-08-31T13:54:14;3.92;;;1.40;;
21192;SDS011;10754;51.106;7.164;2023-08-31T13:56:39;2.88;;;1.35;;
21192;SDS011;10754;51.106;7.164;2023-08-31T13:59:05;2.33;;;1.13;;
21192;SDS011;10754;51.106;7.164;2023-08-31T14:01:30;3.20;;;1.30;;
21192;SDS011;10754;51.106;7.164;2023-08-31T14:03:56;3.10;;;1.10;;
21192;SDS011;10754;51.106;7.164;2023-08-31T14:06:21;3.88;;;1.60;;
21192;SDS011;10754;51.106;7.164;2023-08-31T14:08:47;3.03;;;1.30;;
21192;SDS011;10754;51.106;7.164;2023-08-31T14:11:13;2.55;;;1.23;;
21192;SDS011;10754;51.106;7.164;2023-08-31T14:13:39;1.75;;;1.13;;
21192;SDS011;10754;51.106;7.164;2023-08-31T14:16:04;2.40;;;1.40;;
21192;SDS011;10754;51.106;7.164;2023-08-31T14:18:30;2.33;;;1.00;;
21192;SDS011;10754;51.106;7.164;2023-08-31T14:20:57;2.40;;;1.10;;
21192;SDS011;10754;51.106;7.164;2023-08-31T14:23:26;1.80;;;1.02;;
21192;SDS011;10754;51.106;7.164;2023-08-31T14:25:52;2.28;;;1.30;;
21192;SDS011;10754;51.106;7.164;2023-08-31T14:28:17;3.63;;;1.20;;
21192;SDS011;10754;51.106;7.164;2023-08-31T14:30:43;4.60;;;1.65;;
21192;SDS011;10754;51.106;7.164;2023-08-31T14:33:08;2.25;;;1.25;;
21192;SDS011;10754;51.106;7.164;2023-08-31T14:35:37;3.58;;;1.38;;
21192;SDS011;10754;51.106;7.164;2023-08-31T14:38:04;3.42;;;1.00;;
21192;SDS011;10754;51.106;7.164;2023-08-31T14:40:32;3.83;;;1.27;;
21192;SDS011;10754;51.106;7.164;2023-08-31T14:43:00;2.33;;;0.95;;
21192;SDS011;10754;51.106;7.164;2023-08-31T14:45:25;2.05;;;1.17;;
21192;SDS011;10754;51.106;7.164;2023-08-31T14:47:51;2.63;;;1.30;;
21192;SDS011;10754;51.106;7.164;2023-08-31T14:50:16;3.50;;;1.30;;
21192;SDS011;10754;51.106;7.164;2023-08-31T14:52:42;2.47;;;1.00;;
21192;SDS011;10754;51.106;7.164;2023-08-31T14:55:07;3.60;;;1.30;;
21192;SDS011;10754;51.106;7.164;2023-08-31T14:57:33;2.33;;;1.40;;
21192;SDS011;10754;51.106;7.164;2023-08-31T14:59:58;5.38;;;1.90;;
21192;SDS011;10754;51.106;7.164;2023-08-31T15:02:24;2.90;;;1.25;;